Time;durP1;ratioP1;P1;durP2;ratioP2;P2;SDS_P1;SDS_P2;PMS_P1;PMS_P2;Temp;Humidity;BMP_temperature;BMP_pressure;BME280_temperature;BME280_humidity;BME280_pressure;Samples;Min_cycle;Max_cycle;Signal;HPM_P1;HPM_P2
2022/01/21 00:00:19;;;;;;;1.83;1.33;;;0.30;99.90;;;;;;5041281;28;20881;-58
2022/01/21 00:02:47;;;;;;;1.63;1.47;;;0.30;99.90;;;;;;5045726;28;20536;-58
2022/01/21 00:05:14;;;;;;;2.70;1.63;;;0.30;99.90;;;;;;5037417;28;20486;-56
2022/01/21 00:07:41;;;;;;;1.40;1.20;;;0.30;99.90;;;;;;5038130;28;20557;-57
2022/01/21 00:10:09;;;;;;;1.87;1.77;;;0.40;99.90;;;;;;5041635;28;20495;-55
2022/01/21 00:12:37;;;;;;;1.93;1.60;;;0.50;99.90;;;;;;5036786;28;20479;-56
2022/01/21 00:15:05;;;;;;;3.37;1.87;;;0.50;99.90;;;;;;5042093;28;20491;-56
2022/01/21 00:17:32;;;;;;;2.20;1.93;;;0.50;99.90;;;;;;5040103;28;20481;-56
2022/01/21 00:30:58;;;;;;;4.43;1.83;;;0.40;99.90;;;;;;5042076;28;20950;-56
2022/01/21 00:33:25;;;;;;;1.70;1.60;;;0.20;99.90;;;;;;5034259;28;20942;-56
2022/01/21 00:35:53;;;;;;;1.77;1.60;;;0.10;99.90;;;;;;5033912;28;20516;-59
2022/01/21 00:38:21;;;;;;;1.90;1.80;;;0.00;99.90;;;;;;5047755;28;20478;-58
2022/01/21 00:40:49;;;;;;;2.80;1.43;;;0.00;99.90;;;;;;5032049;28;20682;-57
2022/01/21 00:43:20;;;;;;;1.60;1.50;;;0.20;99.90;;;;;;5039604;28;21027;-58
2022/01/21 00:45:49;;;;;;;1.70;1.53;;;0.30;99.90;;;;;;5046472;28;20455;-58
2022/01/21 00:48:17;;;;;;;2.57;2.37;;;0.40;99.90;;;;;;5029432;28;20821;-57
2022/01/21 00:50:44;;;;;;;1.80;1.63;;;0.40;99.90;;;;;;5037649;28;21136;-57
2022/01/21 00:53:12;;;;;;;2.43;1.90;;;0.50;99.90;;;;;;5041165;28;20485;-57
2022/01/21 00:55:39;;;;;;;4.27;2.07;;;0.50;99.90;;;;;;5039707;28;20476;-57
2022/01/21 00:58:06;;;;;;;4.40;2.60;;;0.50;99.90;;;;;;5039524;28;20479;-56
2022/01/21 01:00:33;;;;;;;2.47;2.27;;;0.50;99.90;;;;;;5039724;28;20502;-56
2022/01/21 01:03:00;;;;;;;3.57;2.40;;;0.40;99.90;;;;;;5036178;28;20480;-57
2022/01/21 01:05:27;;;;;;;3.47;2.07;;;0.50;99.90;;;;;;5036780;28;20842;-57
2022/01/21 01:07:55;;;;;;;3.50;1.87;;;0.40;99.90;;;;;;5033107;28;20479;-59
2022/01/21 01:10:36;;;;;;;2.03;1.80;;;0.50;99.90;;;;;;5032743;28;20572;-58
2022/01/21 01:19:54;;;;;;;5.17;2.77;;;0.40;99.90;;;;;;5037502;28;20444;-58
2022/01/21 01:21:21;;;;;;;4.30;2.23;;;0.30;99.90;;;;;;5026956;28;20440;-57
2022/01/21 01:24:03;;;;;;;2.80;2.50;;;0.20;99.90;;;;;;5029453;28;20478;-56
2022/01/21 01:29:18;;;;;;;3.37;2.03;;;0.20;99.90;;;;;;5030629;28;20603;-57
2022/01/21 01:31:45;;;;;;;2.70;2.40;;;0.20;99.90;;;;;;5034386;28;21139;-55
2022/01/21 01:34:13;;;;;;;4.20;2.37;;;0.20;99.90;;;;;;5041564;28;20470;-58
2022/01/21 01:36:42;;;;;;;2.73;2.23;;;0.20;99.90;;;;;;5023476;28;20491;-58
2022/01/21 01:39:14;;;;;;;3.40;2.17;;;0.20;99.90;;;;;;5029736;28;20460;-56
2022/01/21 01:41:48;;;;;;;4.50;1.97;;;0.30;99.90;;;;;;5047653;28;20449;-57
2022/01/21 01:49:44;;;;;;;3.27;2.60;;;0.20;99.90;;;;;;5034326;28;20479;-57
2022/01/21 01:52:12;;;;;;;3.07;2.77;;;0.20;99.90;;;;;;5042017;28;20477;-58
2022/01/21 01:54:44;;;;;;;4.40;3.13;;;0.10;99.90;;;;;;5031607;28;20481;-56
2022/01/21 01:57:12;;;;;;;3.00;2.70;;;0.10;99.90;;;;;;5026641;28;20512;-58
2022/01/21 01:59:40;;;;;;;3.40;2.60;;;0.10;99.90;;;;;;5036696;28;20510;-62
2022/01/21 02:02:09;;;;;;;3.83;3.40;;;0.10;99.90;;;;;;5043059;28;20473;-57
2022/01/21 02:04:36;;;;;;;3.70;3.03;;;0.10;99.90;;;;;;5031621;28;20511;-57
2022/01/21 02:07:04;;;;;;;5.37;2.77;;;0.10;99.90;;;;;;5031755;28;20489;-57
2022/01/21 02:09:31;;;;;;;6.27;3.30;;;0.10;99.90;;;;;;5040362;28;20524;-57
2022/01/21 02:11:58;;;;;;;3.97;3.57;;;0.10;99.90;;;;;;5031007;28;20817;-56
2022/01/21 02:14:30;;;;;;;4.77;2.90;;;0.10;99.90;;;;;;5029960;28;20575;-56
2022/01/21 02:17:14;;;;;;;4.70;3.23;;;0.10;99.90;;;;;;5037111;28;20570;-58
2022/01/21 02:22:33;;;;;;;3.70;3.13;;;0.10;99.90;;;;;;5038224;28;20559;-58
2022/01/21 02:25:15;;;;;;;4.37;3.97;;;0.10;99.90;;;;;;5031221;28;20526;-56
2022/01/21 02:27:42;;;;;;;3.57;2.90;;;0.00;99.90;;;;;;5034846;28;20460;-58
2022/01/21 02:30:17;;;;;;;4.83;3.50;;;-0.20;99.90;;;;;;5029168;28;21008;-57
2022/01/21 02:32:45;;;;;;;3.70;3.27;;;-0.40;99.90;;;;;;5028656;28;20458;-56
2022/01/21 02:35:12;;;;;;;4.20;3.37;;;-0.70;99.90;;;;;;5026575;28;20481;-59
2022/01/21 02:37:41;;;;;;;4.43;3.60;;;-0.70;99.90;;;;;;5044670;28;20520;-58
2022/01/21 02:40:09;;;;;;;4.27;2.93;;;-0.80;99.90;;;;;;5029461;28;20496;-60
2022/01/21 02:42:36;;;;;;;4.60;3.10;;;-0.80;99.90;;;;;;5031094;28;20847;-58
2022/01/21 02:45:05;;;;;;;3.67;2.90;;;-0.70;99.90;;;;;;5039428;28;20486;-63
2022/01/21 02:47:32;;;;;;;4.80;3.33;;;-0.60;99.90;;;;;;5039779;28;20522;-58
2022/01/21 02:49:59;;;;;;;4.00;3.57;;;-0.60;99.90;;;;;;5032360;28;20534;-57
2022/01/21 02:52:29;;;;;;;3.97;3.20;;;-0.50;99.90;;;;;;5035323;28;20989;-58
2022/01/21 02:54:58;;;;;;;6.37;3.23;;;-0.40;99.90;;;;;;5040762;28;20477;-59
2022/01/21 02:57:25;;;;;;;4.93;3.10;;;-0.30;99.90;;;;;;5036745;28;20523;-59
2022/01/21 02:59:51;;;;;;;3.50;2.83;;;-0.20;99.90;;;;;;5034911;28;20500;-57
2022/01/21 03:02:18;;;;;;;4.00;3.57;;;-0.10;99.90;;;;;;5040335;28;20512;-62
2022/01/21 03:04:54;;;;;;;4.90;3.70;;;-0.10;99.90;;;;;;5028621;28;20942;-57
2022/01/21 03:07:21;;;;;;;6.00;4.47;;;0.00;99.90;;;;;;5027614;28;20460;-58
2022/01/21 03:09:48;;;;;;;5.00;4.03;;;0.00;99.90;;;;;;5028159;28;20553;-58
2022/01/21 03:12:16;;;;;;;3.67;3.37;;;0.00;99.90;;;;;;5028538;28;20488;-57
2022/01/21 03:14:43;;;;;;;3.57;3.17;;;0.10;99.90;;;;;;5031532;28;20482;-58
2022/01/21 03:17:10;;;;;;;3.77;3.00;;;0.10;99.90;;;;;;5035173;28;20523;-57
2022/01/21 03:19:37;;;;;;;3.30;3.00;;;0.10;99.90;;;;;;5032619;28;20989;-56
2022/01/21 03:22:05;;;;;;;4.07;3.20;;;0.10;99.90;;;;;;5034995;28;20476;-58
2022/01/21 03:24:32;;;;;;;3.07;2.80;;;0.10;99.90;;;;;;5030268;28;20563;-57
2022/01/21 03:26:59;;;;;;;4.03;3.70;;;0.10;99.90;;;;;;5029580;28;20954;-57
2022/01/21 03:29:27;;;;;;;2.80;2.57;;;0.10;99.90;;;;;;5028523;28;20518;-59
2022/01/21 03:31:54;;;;;;;3.30;3.00;;;0.00;99.90;;;;;;5028078;28;20479;-57
2022/01/21 03:34:21;;;;;;;4.77;3.07;;;-0.30;99.90;;;;;;5034099;28;20490;-57
2022/01/21 03:36:49;;;;;;;3.50;3.10;;;-0.50;99.90;;;;;;5028751;28;21036;-58
2022/01/21 03:39:16;;;;;;;3.93;3.50;;;-0.80;99.90;;;;;;5027635;28;20477;-57
2022/01/21 03:41:43;;;;;;;3.40;3.10;;;-0.70;99.90;;;;;;5026544;28;20492;-64
2022/01/21 03:44:10;;;;;;;3.97;3.60;;;-0.60;99.90;;;;;;5029060;28;20484;-58
2022/01/21 03:46:39;;;;;;;4.20;3.80;;;-0.70;99.90;;;;;;5024971;28;20481;-59
2022/01/21 03:49:08;;;;;;;4.20;3.80;;;-0.60;99.90;;;;;;5028015;28;20882;-58
2022/01/21 03:51:34;;;;;;;5.30;3.97;;;-0.60;99.90;;;;;;5039978;28;20485;-58
2022/01/21 03:54:01;;;;;;;3.93;3.40;;;-0.50;99.90;;;;;;5042037;28;20479;-65
2022/01/21 03:56:28;;;;;;;4.90;3.57;;;-0.50;99.90;;;;;;5029618;28;20480;-58
2022/01/21 03:58:55;;;;;;;3.77;3.33;;;-0.40;99.90;;;;;;5032520;28;20500;-58
2022/01/21 04:01:24;;;;;;;3.00;2.80;;;-0.70;99.90;;;;;;5033081;28;20881;-58
2022/01/21 04:03:52;;;;;;;3.53;3.17;;;-0.60;99.90;;;;;;5030006;28;20445;-58
2022/01/21 04:06:19;;;;;;;5.17;3.63;;;-0.50;99.90;;;;;;5029053;28;20480;-57
2022/01/21 04:08:46;;;;;;;3.10;2.90;;;-0.80;99.90;;;;;;5030498;28;20487;-58
2022/01/21 04:11:14;;;;;;;4.33;3.27;;;-0.70;99.90;;;;;;5027700;28;21031;-62
2022/01/21 04:13:40;;;;;;;4.30;3.40;;;-0.60;99.90;;;;;;5026965;28;20964;-58
2022/01/21 04:16:07;;;;;;;4.77;4.30;;;-0.60;99.90;;;;;;5029324;28;20453;-58
2022/01/21 04:18:34;;;;;;;5.83;3.67;;;-0.60;99.90;;;;;;5031829;28;20638;-56
2022/01/21 04:21:03;;;;;;;4.60;3.67;;;-0.50;99.90;;;;;;5026816;28;20515;-58
2022/01/21 04:23:30;;;;;;;3.73;3.43;;;-0.50;99.90;;;;;;5035044;28;20480;-57
2022/01/21 04:25:57;;;;;;;6.13;5.07;;;-0.50;99.90;;;;;;5035167;28;20470;-56
2022/01/21 04:28:24;;;;;;;5.37;4.30;;;-0.50;99.90;;;;;;5035824;28;20567;-57
2022/01/21 04:30:51;;;;;;;4.93;4.47;;;-0.40;99.90;;;;;;5033122;28;20574;-57
2022/01/21 04:33:18;;;;;;;4.60;3.93;;;-0.40;99.90;;;;;;5033247;28;20484;-57
2022/01/21 04:35:45;;;;;;;5.37;3.67;;;-0.30;99.90;;;;;;5036453;28;20930;-58
2022/01/21 04:38:17;;;;;;;5.47;4.67;;;-0.30;99.90;;;;;;5035042;28;20513;-58
2022/01/21 04:40:50;;;;;;;4.33;3.33;;;-0.30;99.90;;;;;;5032791;28;21063;-57
2022/01/21 04:48:45;;;;;;;4.43;3.63;;;-0.40;99.90;;;;;;5035908;28;20491;-58
2022/01/21 04:51:17;;;;;;;5.03;3.00;;;-0.40;99.90;;;;;;5044195;28;20960;-56
2022/01/21 04:53:47;;;;;;;5.73;3.23;;;-0.50;99.90;;;;;;5035756;28;20819;-56
2022/01/21 04:56:15;;;;;;;4.33;3.93;;;-0.50;99.90;;;;;;5030926;28;20473;-56
2022/01/21 04:58:43;;;;;;;7.23;3.40;;;-0.40;99.90;;;;;;5037313;28;20525;-58
2022/01/21 05:01:11;;;;;;;4.80;3.40;;;-0.40;99.90;;;;;;5036555;28;20500;-58
2022/01/21 05:03:41;;;;;;;3.80;3.40;;;-1.00;99.90;;;;;;5031083;28;20451;-56
2022/01/21 05:06:08;;;;;;;4.03;3.43;;;-1.20;99.90;;;;;;5028523;28;20457;-56
2022/01/21 05:08:46;;;;;;;5.03;3.00;;;-1.20;99.90;;;;;;5031371;28;20453;-56
2022/01/21 05:11:16;;;;;;;7.30;3.50;;;-1.40;99.90;;;;;;5074313;23;20482;-80
2022/01/21 05:13:51;;;;;;;4.23;3.83;;;-1.50;99.90;;;;;;5061325;28;20454;-80
2022/01/21 05:16:30;;;;;;;4.33;3.63;;;-1.50;99.90;;;;;;5053269;28;21161;-80
2022/01/21 05:18:59;;;;;;;4.00;3.60;;;-1.30;99.90;;;;;;5056132;28;20534;-80
2022/01/21 05:21:26;;;;;;;5.37;4.90;;;-1.20;99.90;;;;;;5054103;28;20497;-80
2022/01/21 05:23:53;;;;;;;4.80;3.57;;;-1.30;99.90;;;;;;5058593;28;20981;-80
2022/01/21 05:26:22;;;;;;;3.30;2.73;;;-1.30;99.90;;;;;;5056612;28;20940;-80
2022/01/21 05:28:48;;;;;;;3.20;2.57;;;-1.30;99.90;;;;;;5063745;28;20521;-80
2022/01/21 05:31:15;;;;;;;4.40;3.67;;;-1.10;99.90;;;;;;5059101;28;20473;-80
2022/01/21 05:33:42;;;;;;;7.07;5.13;;;-1.10;99.90;;;;;;5057488;28;20478;-80
2022/01/21 05:36:09;;;;;;;15.03;9.90;;;-1.00;99.90;;;;;;5059104;28;20446;-80
2022/01/21 05:38:36;;;;;;;14.13;9.57;;;-1.00;99.90;;;;;;5061136;28;20520;-80
2022/01/21 05:41:03;;;;;;;12.90;8.80;;;-1.40;99.90;;;;;;5053900;28;20449;-80
2022/01/21 05:43:33;;;;;;;10.20;8.17;;;-1.50;99.90;;;;;;5055138;28;20500;-81
2022/01/21 05:48:44;;;;;;;8.67;7.00;;;-1.20;99.90;;;;;;5054626;28;20443;-80
2022/01/21 05:51:11;;;;;;;6.63;5.50;;;-1.20;99.90;;;;;;5059144;28;20539;-81
2022/01/21 05:53:39;;;;;;;5.33;3.97;;;-1.20;99.90;;;;;;5051525;28;22072;-80
2022/01/21 05:56:06;;;;;;;3.70;3.07;;;-1.30;99.90;;;;;;5052033;28;21018;-80
2022/01/21 05:58:35;;;;;;;5.47;3.30;;;-1.40;99.90;;;;;;5049257;28;20514;-80
2022/01/21 06:01:02;;;;;;;3.90;2.30;;;-1.30;99.90;;;;;;5053490;28;22041;-81
2022/01/21 06:03:29;;;;;;;1.80;1.70;;;-1.20;99.90;;;;;;5054219;28;20504;-80
2022/01/21 06:05:56;;;;;;;1.67;1.50;;;-1.30;99.90;;;;;;5070608;28;20432;-80
2022/01/21 06:08:23;;;;;;;1.80;1.30;;;-1.30;99.90;;;;;;5058348;28;20462;-81
2022/01/21 06:10:50;;;;;;;3.83;1.80;;;-1.30;99.90;;;;;;5054164;28;20448;-80
2022/01/21 06:13:18;;;;;;;3.17;2.33;;;-1.10;99.90;;;;;;5051760;28;20481;-81
2022/01/21 06:15:47;;;;;;;2.43;2.23;;;-1.00;99.90;;;;;;5052107;28;20451;-80
2022/01/21 06:18:14;;;;;;;2.53;2.30;;;-1.00;99.90;;;;;;5047111;28;20479;-80
2022/01/21 06:20:42;;;;;;;2.47;2.00;;;-1.00;99.90;;;;;;5047932;28;20479;-80
2022/01/21 06:23:10;;;;;;;2.07;1.60;;;-1.00;99.90;;;;;;5050992;28;20491;-80
2022/01/21 06:25:36;;;;;;;2.87;2.60;;;-1.00;99.90;;;;;;5059036;28;20445;-80
2022/01/21 06:28:04;;;;;;;4.93;4.40;;;-0.90;99.90;;;;;;5060957;28;21080;-80
2022/01/21 06:30:31;;;;;;;1.90;1.80;;;-0.90;99.90;;;;;;5050003;28;20457;-80
2022/01/21 06:32:59;;;;;;;3.10;2.40;;;-0.80;99.90;;;;;;5050418;28;20453;-81
2022/01/21 06:35:26;;;;;;;4.93;2.67;;;-0.80;99.90;;;;;;5063500;28;20495;-80
2022/01/21 06:37:53;;;;;;;4.53;2.93;;;-0.70;99.90;;;;;;5056497;28;21168;-82
2022/01/21 06:40:20;;;;;;;2.97;2.40;;;-0.70;99.90;;;;;;5055885;28;20528;-80
2022/01/21 06:42:48;;;;;;;2.80;2.43;;;-0.70;99.90;;;;;;5062375;28;20525;-81
2022/01/21 06:45:15;;;;;;;4.50;2.77;;;-0.70;99.90;;;;;;5049057;28;20492;-81
2022/01/21 06:47:42;;;;;;;4.33;3.57;;;-0.80;99.90;;;;;;5051434;28;20459;-80
2022/01/21 06:50:11;;;;;;;4.30;2.50;;;-0.70;99.90;;;;;;5052234;28;20572;-80
2022/01/21 06:52:38;;;;;;;3.33;1.97;;;-0.70;99.90;;;;;;5065503;28;20463;-79
2022/01/21 06:55:06;;;;;;;3.63;2.13;;;-0.60;99.90;;;;;;5057777;28;20441;-80
2022/01/21 06:57:37;;;;;;;27.30;19.10;;;-0.60;99.90;;;;;;5061056;28;20467;-81
2022/01/21 07:00:06;;;;;;;3.80;3.50;;;-0.60;99.90;;;;;;5062248;28;20459;-81
2022/01/21 07:02:33;;;;;;;2.10;1.90;;;-0.60;99.90;;;;;;5060901;28;20478;-81
2022/01/21 07:05:00;;;;;;;10.60;9.00;;;-0.50;99.90;;;;;;5056135;28;20519;-80
2022/01/21 07:07:28;;;;;;;5.67;5.23;;;-0.50;99.90;;;;;;5060829;28;20521;-81
2022/01/21 07:09:56;;;;;;;8.27;7.50;;;-0.60;99.90;;;;;;5060895;28;20853;-80
2022/01/21 07:12:22;;;;;;;3.00;2.70;;;-0.50;99.90;;;;;;5052407;28;20458;-81
2022/01/21 07:14:49;;;;;;;2.80;1.87;;;-0.80;99.90;;;;;;5060293;28;20475;-81
2022/01/21 07:17:16;;;;;;;2.70;2.20;;;-1.10;99.90;;;;;;5061064;28;20585;-81
2022/01/21 07:19:43;;;;;;;2.23;2.00;;;-1.10;99.90;;;;;;5052356;28;20478;-80
2022/01/21 07:22:10;;;;;;;3.03;2.37;;;-1.00;99.90;;;;;;5056470;28;20478;-80
2022/01/21 07:24:38;;;;;;;3.37;3.07;;;-1.00;99.90;;;;;;5064568;28;20482;-80
2022/01/21 07:27:05;;;;;;;3.63;3.27;;;-0.90;99.90;;;;;;5057248;28;20493;-81
2022/01/21 07:29:33;;;;;;;5.70;2.67;;;-0.70;99.90;;;;;;5055416;28;20485;-80
2022/01/21 07:32:00;;;;;;;3.10;2.80;;;-0.70;99.90;;;;;;5064627;28;20481;-80
2022/01/21 07:34:28;;;;;;;3.30;3.00;;;-0.60;99.90;;;;;;5053090;28;20865;-81
2022/01/21 07:39:31;;;;;;;2.53;2.33;;;-0.60;99.90;;;;;;5051353;28;20485;-50
2022/01/21 07:41:59;;;;;;;2.53;2.33;;;-0.70;99.90;;;;;;5058846;28;20511;-49
2022/01/21 07:44:26;;;;;;;2.27;2.03;;;-1.00;99.90;;;;;;5056231;28;20472;-50
2022/01/21 07:46:53;;;;;;;5.30;2.67;;;-1.00;99.90;;;;;;5051270;28;20594;-50
2022/01/21 07:51:55;;;;;;;3.37;2.73;;;-1.00;99.90;;;;;;5083938;23;20477;-86
2022/01/21 07:54:21;;;;;;;3.13;2.83;;;-1.20;99.90;;;;;;5054644;28;20473;-86
2022/01/21 07:56:48;;;;;;;2.93;2.30;;;-1.30;99.90;;;;;;5059711;28;20458;-87
2022/01/21 07:59:17;;;;;;;2.73;2.27;;;-1.20;99.90;;;;;;5064619;28;21081;-86
2022/01/21 08:01:45;;;;;;;4.10;2.30;;;-1.20;99.90;;;;;;5054773;28;20446;-87
2022/01/21 08:04:12;;;;;;;3.93;2.50;;;-1.10;99.90;;;;;;5055985;28;20454;-87
2022/01/21 08:06:39;;;;;;;3.50;3.03;;;-0.90;99.90;;;;;;5051047;28;20459;-87
2022/01/21 08:09:07;;;;;;;4.43;3.50;;;-0.90;99.90;;;;;;5051072;28;20516;-86
2022/01/21 08:11:34;;;;;;;6.73;6.23;;;-0.80;99.90;;;;;;5054351;28;20445;-86
2022/01/21 08:14:01;;;;;;;4.60;3.67;;;-0.90;99.90;;;;;;5061041;28;20477;-87
2022/01/21 08:16:30;;;;;;;5.30;4.70;;;-1.20;99.90;;;;;;5064182;28;20511;-86
2022/01/21 08:18:57;;;;;;;7.03;5.30;;;-1.40;99.90;;;;;;5052670;28;20478;-86
2022/01/21 08:21:24;;;;;;;11.30;6.50;;;-1.20;99.90;;;;;;5061359;28;20446;-87
2022/01/21 08:23:52;;;;;;;8.63;5.13;;;-1.20;99.90;;;;;;5067295;28;20841;-86
2022/01/21 08:26:22;;;;;;;12.07;5.40;;;-1.10;99.90;;;;;;5063268;28;20506;-87
2022/01/21 08:28:49;;;;;;;6.30;4.87;;;-1.20;99.90;;;;;;5064371;28;20478;-86
2022/01/21 08:33:59;;;;;;;6.77;5.70;;;-1.10;99.90;;;;;;5067610;28;20429;-86
2022/01/21 08:36:26;;;;;;;8.13;6.10;;;-0.90;99.90;;;;;;5056803;28;20482;-88
2022/01/21 08:38:56;;;;;;;6.47;5.80;;;-0.80;99.90;;;;;;5066501;28;21029;-86
2022/01/21 08:41:23;;;;;;;4.30;3.67;;;-0.80;99.90;;;;;;5064972;28;20452;-86
2022/01/21 08:43:50;;;;;;;3.50;3.10;;;-0.80;99.90;;;;;;5061638;28;20442;-86
2022/01/21 08:46:17;;;;;;;5.27;2.73;;;-1.10;99.90;;;;;;5067764;28;20463;-87
2022/01/21 08:48:46;;;;;;;4.03;3.73;;;-1.20;99.90;;;;;;5072808;28;20540;-87
2022/01/21 08:51:22;;;;;;;4.20;3.10;;;-1.30;99.90;;;;;;5065732;28;20456;-86
2022/01/21 08:53:49;;;;;;;2.93;2.63;;;-1.40;99.90;;;;;;5066125;28;20488;-86
2022/01/21 08:56:17;;;;;;;3.27;2.93;;;-1.20;99.90;;;;;;5073959;28;20446;-87
2022/01/21 08:58:45;;;;;;;4.83;3.33;;;-1.00;99.90;;;;;;5069318;28;20549;-87
2022/01/21 09:01:16;;;;;;;5.33;3.83;;;-0.80;99.90;;;;;;5057845;28;20450;-86
2022/01/21 09:03:43;;;;;;;7.43;5.87;;;-0.70;99.90;;;;;;5060059;28;20441;-86
2022/01/21 09:06:18;;;;;;;6.07;5.20;;;-0.60;99.90;;;;;;5068383;28;20448;-87
2022/01/21 09:09:00;;;;;;;8.83;4.10;;;-0.50;99.90;;;;;;5062756;28;20447;-87
2022/01/21 09:14:09;;;;;;;4.80;3.87;;;-0.60;99.90;;;;;;5066882;28;20480;-87
2022/01/21 09:16:36;;;;;;;4.03;3.33;;;-0.90;99.90;;;;;;5065349;28;20476;-86
2022/01/21 09:19:04;;;;;;;3.13;2.83;;;-0.80;99.90;;;;;;5060201;28;20486;-86
2022/01/21 09:21:34;;;;;;;2.97;2.77;;;-0.60;99.90;;;;;;5062892;28;20504;-86
2022/01/21 09:24:02;;;;;;;3.53;3.30;;;-0.60;99.90;;;;;;5072638;28;20449;-86
2022/01/21 09:26:30;;;;;;;5.90;3.40;;;-0.50;99.90;;;;;;5067844;28;20827;-86
2022/01/21 09:28:57;;;;;;;5.20;4.13;;;-0.40;99.90;;;;;;5061504;28;21016;-86
2022/01/21 09:31:25;;;;;;;5.77;4.70;;;-0.30;99.90;;;;;;5061140;28;20501;-87
2022/01/21 09:33:52;;;;;;;5.60;3.50;;;-0.20;99.90;;;;;;5066266;28;20443;-87
2022/01/21 09:36:20;;;;;;;5.77;4.80;;;-0.10;99.90;;;;;;5067137;28;20441;-87
2022/01/21 09:38:49;;;;;;;4.63;4.20;;;-0.10;99.90;;;;;;5065054;28;20502;-87
2022/01/21 09:41:17;;;;;;;4.90;4.50;;;0.00;99.90;;;;;;5069499;28;20464;-86
2022/01/21 09:43:47;;;;;;;5.10;4.60;;;0.00;99.90;;;;;;5060020;28;20456;-87
2022/01/21 09:46:14;;;;;;;50.63;27.57;;;0.00;99.90;;;;;;5059223;28;20452;-87
2022/01/21 09:48:52;;;;;;;9.57;6.70;;;0.10;99.90;;;;;;5065473;28;20556;-87
2022/01/21 09:51:19;;;;;;;8.40;5.10;;;0.10;99.90;;;;;;5073080;28;20459;-86
2022/01/21 09:53:48;;;;;;;4.73;4.23;;;0.10;99.90;;;;;;5061467;28;20450;-86
2022/01/21 09:56:16;;;;;;;4.37;3.40;;;0.20;99.90;;;;;;5064567;28;20471;-86
2022/01/21 09:58:46;;;;;;;4.20;3.80;;;0.20;99.90;;;;;;5064583;28;20510;-88
2022/01/21 10:01:14;;;;;;;5.80;3.87;;;0.20;99.90;;;;;;5058042;28;20435;-87
2022/01/21 10:03:43;;;;;;;5.33;4.33;;;0.20;99.90;;;;;;5060886;28;20443;-86
2022/01/21 10:06:11;;;;;;;4.67;3.80;;;0.20;99.90;;;;;;5067976;28;20486;-86
2022/01/21 10:08:41;;;;;;;10.17;4.10;;;0.20;99.90;;;;;;5068403;28;20457;-87
2022/01/21 10:11:10;;;;;;;4.13;3.53;;;0.30;99.90;;;;;;5061942;28;20448;-86
2022/01/21 10:13:38;;;;;;;4.60;4.00;;;0.30;99.90;;;;;;5063485;28;20502;-87
2022/01/21 10:16:08;;;;;;;7.00;5.00;;;0.40;99.90;;;;;;5069901;28;20457;-87
2022/01/21 10:18:36;;;;;;;5.33;4.63;;;0.40;99.90;;;;;;5065545;28;20474;-87
2022/01/21 10:21:06;;;;;;;6.93;5.33;;;0.50;99.90;;;;;;5055302;28;20451;-85
2022/01/21 10:23:36;;;;;;;6.67;5.20;;;0.40;99.90;;;;;;5068305;28;20534;-87
2022/01/21 10:26:06;;;;;;;9.17;5.27;;;0.40;99.90;;;;;;5064521;28;20468;-86
2022/01/21 10:28:40;;;;;;;5.60;4.70;;;0.40;99.90;;;;;;5059139;28;20487;-87
2022/01/21 10:31:19;;;;;;;4.57;4.17;;;0.30;99.90;;;;;;5057335;28;20865;-86
2022/01/21 10:33:48;;;;;;;4.17;3.87;;;0.40;99.90;;;;;;5072147;28;20455;-86
2022/01/21 10:36:24;;;;;;;6.67;4.63;;;0.50;99.90;;;;;;5062800;28;20444;-86
2022/01/21 10:38:52;;;;;;;6.87;4.00;;;0.70;99.90;;;;;;5054602;28;20852;-87
2022/01/21 10:41:21;;;;;;;7.03;3.50;;;0.80;99.90;;;;;;5055693;28;20495;-87
2022/01/21 10:44:05;;;;;;;4.20;3.80;;;0.90;99.90;;;;;;5055143;28;20531;-86
2022/01/21 10:46:33;;;;;;;3.87;3.23;;;1.00;99.90;;;;;;5053156;28;20441;-87
2022/01/21 10:49:03;;;;;;;3.20;2.90;;;1.10;99.90;;;;;;5054267;28;20499;-86
2022/01/21 10:51:33;;;;;;;3.27;2.97;;;1.20;99.90;;;;;;5064650;28;20456;-86
2022/01/21 10:54:14;;;;;;;5.60;3.60;;;1.30;99.90;;;;;;5068632;28;20520;-86
2022/01/21 10:56:42;;;;;;;3.17;2.70;;;1.30;99.90;;;;;;5056078;28;20440;-86
2022/01/21 10:59:10;;;;;;;3.60;3.03;;;1.40;99.90;;;;;;5061958;28;20988;-86
2022/01/21 11:01:37;;;;;;;5.73;3.10;;;1.40;99.90;;;;;;5069278;28;20448;-87
2022/01/21 11:04:10;;;;;;;6.13;3.60;;;1.30;99.90;;;;;;5062008;28;20441;-87
2022/01/21 11:06:48;;;;;;;3.87;3.57;;;1.30;99.90;;;;;;5059396;28;20541;-87
2022/01/21 11:09:17;;;;;;;2.80;2.30;;;1.30;99.90;;;;;;5056346;28;20474;-86
2022/01/21 11:11:45;;;;;;;2.80;2.03;;;1.10;99.90;;;;;;5059385;28;20503;-87
2022/01/21 11:14:16;;;;;;;1.83;1.60;;;0.90;99.90;;;;;;5063107;28;20998;-86
2022/01/21 11:16:46;;;;;;;2.67;1.80;;;0.90;99.90;;;;;;5062621;28;20444;-86
2022/01/21 11:19:16;;;;;;;4.40;1.30;;;1.00;99.90;;;;;;5060732;28;20581;-87
2022/01/21 11:21:51;;;;;;;1.83;1.23;;;0.90;99.90;;;;;;5058842;28;20549;-86
2022/01/21 11:24:19;;;;;;;1.77;1.67;;;0.70;99.90;;;;;;5056489;28;20445;-87
2022/01/21 11:27:06;;;;;;;1.30;1.20;;;0.70;99.90;;;;;;5068574;28;20475;-87
2022/01/21 11:29:35;;;;;;;1.30;1.20;;;0.30;99.90;;;;;;5070815;28;20439;-87
2022/01/21 11:32:03;;;;;;;4.80;1.73;;;0.20;99.90;;;;;;5061883;28;20444;-86
2022/01/21 11:34:31;;;;;;;2.00;1.70;;;0.30;99.90;;;;;;5061345;28;20942;-88
2022/01/21 11:36:58;;;;;;;3.80;1.93;;;0.30;99.90;;;;;;5070883;28;20474;-88
2022/01/21 11:39:25;;;;;;;3.37;2.53;;;0.40;99.90;;;;;;5057728;28;20476;-86
2022/01/21 11:41:56;;;;;;;2.37;1.70;;;0.30;99.90;;;;;;5057365;28;20448;-86
2022/01/21 11:44:25;;;;;;;2.27;1.90;;;0.30;99.90;;;;;;5062875;28;20502;-86
2022/01/21 11:47:14;;;;;;;2.60;2.20;;;0.10;99.90;;;;;;5067167;28;20781;-87
2022/01/21 11:49:43;;;;;;;1.83;1.73;;;0.30;99.90;;;;;;5066004;28;20446;-86
2022/01/21 11:52:18;;;;;;;2.00;1.67;;;0.30;99.90;;;;;;5059791;28;20933;-86
2022/01/21 11:54:46;;;;;;;2.10;1.73;;;0.40;99.90;;;;;;5065931;28;20452;-87
2022/01/21 11:57:14;;;;;;;2.33;2.13;;;0.40;99.90;;;;;;5063698;28;20448;-87
2022/01/21 11:59:50;;;;;;;3.20;1.77;;;0.50;99.90;;;;;;5056897;28;20494;-87
2022/01/21 12:02:21;;;;;;;2.23;1.37;;;0.60;99.90;;;;;;5056927;28;20566;-87
2022/01/21 12:04:50;;;;;;;1.97;1.80;;;0.60;99.90;;;;;;5069555;28;20456;-87
2022/01/21 12:07:57;;;;;;;1.77;1.67;;;0.60;99.90;;;;;;5057177;28;20460;-87
2022/01/21 12:10:42;;;;;;;2.60;2.40;;;0.70;99.90;;;;;;5054283;28;20461;-86
2022/01/21 12:13:31;;;;;;;1.70;1.33;;;0.60;99.90;;;;;;5051943;28;20447;-87
2022/01/21 12:19:17;;;;;;;1.40;1.30;;;0.00;99.90;;;;;;5060289;28;20449;-87
2022/01/21 12:21:45;;;;;;;2.10;1.43;;;0.20;99.90;;;;;;5065136;28;20901;-87
2022/01/21 12:24:12;;;;;;;3.20;1.47;;;0.30;99.90;;;;;;5059856;28;20487;-86
2022/01/21 12:26:56;;;;;;;3.63;2.10;;;0.30;99.90;;;;;;5060939;28;20509;-86
2022/01/21 12:29:27;;;;;;;1.70;1.50;;;0.50;99.90;;;;;;5063021;28;20984;-87
2022/01/21 12:32:01;;;;;;;1.93;1.33;;;0.50;99.90;;;;;;5058343;28;20479;-86
2022/01/21 12:34:50;;;;;;;3.80;3.50;;;0.50;99.90;;;;;;5054013;28;20466;-86
2022/01/21 12:37:23;;;;;;;3.47;2.70;;;0.60;99.90;;;;;;5058298;28;20499;-86
2022/01/21 12:39:50;;;;;;;9.53;5.20;;;0.60;99.90;;;;;;5061747;28;20910;-87
2022/01/21 12:42:29;;;;;;;16.70;11.20;;;0.70;99.90;;;;;;5054870;28;20505;-86
2022/01/21 12:44:58;;;;;;;36.60;20.40;;;0.80;99.90;;;;;;5057097;28;20860;-87
2022/01/21 12:47:34;;;;;;;9.03;6.37;;;0.90;99.90;;;;;;5063189;28;20545;-87
2022/01/21 12:50:13;;;;;;;15.60;8.53;;;0.90;99.90;;;;;;5056244;28;20452;-87
2022/01/21 12:52:49;;;;;;;11.27;6.10;;;1.00;99.90;;;;;;5063867;28;20453;-87
2022/01/21 12:58:10;;;;;;;2.20;1.97;;;1.10;99.90;;;;;;5056306;28;20472;-87
2022/01/21 13:00:38;;;;;;;6.33;2.40;;;1.20;99.90;;;;;;5070568;28;20499;-88
2022/01/21 13:03:13;;;;;;;3.33;2.00;;;1.20;99.90;;;;;;5062704;28;20824;-86
2022/01/21 13:05:45;;;;;;;2.03;1.83;;;1.30;99.90;;;;;;5060609;28;20445;-87
2022/01/21 13:08:28;;;;;;;2.00;1.90;;;1.30;99.90;;;;;;5062065;28;20540;-87
2022/01/21 13:10:56;;;;;;;3.03;2.67;;;1.30;99.90;;;;;;5066202;28;20832;-87
2022/01/21 13:13:35;;;;;;;11.43;5.30;;;1.20;99.90;;;;;;5063053;28;20440;-86
2022/01/21 13:16:02;;;;;;;3.90;3.40;;;1.20;99.90;;;;;;5049598;28;20455;-86
2022/01/21 13:18:32;;;;;;;3.57;2.27;;;1.30;99.90;;;;;;5055335;28;20463;-87
2022/01/21 13:21:05;;;;;;;3.20;2.90;;;0.90;99.90;;;;;;5067473;28;20476;-87
2022/01/21 13:23:41;;;;;;;2.07;1.87;;;0.70;99.90;;;;;;5056638;28;20461;-87
2022/01/21 13:26:13;;;;;;;3.00;1.93;;;0.50;99.90;;;;;;5047793;28;20451;-88
2022/01/21 13:29:02;;;;;;;2.87;2.00;;;0.70;99.90;;;;;;5069118;28;20700;-86
2022/01/21 13:31:31;;;;;;;2.10;1.80;;;0.80;99.90;;;;;;5055545;28;20448;-87
2022/01/21 13:34:13;;;;;;;2.70;2.47;;;0.80;99.90;;;;;;5059881;28;20484;-87
2022/01/21 13:36:44;;;;;;;2.20;1.80;;;0.70;99.90;;;;;;5060284;28;20449;-87
2022/01/21 13:39:13;;;;;;;2.00;1.50;;;0.50;99.90;;;;;;5076976;23;20583;-57
2022/01/21 13:41:56;;;;;;;1.70;1.03;;;0.60;99.90;;;;;;5059793;28;20843;-55
2022/01/21 13:44:32;;;;;;;1.60;1.50;;;0.70;99.90;;;;;;5049149;28;20458;-56
2022/01/21 13:47:01;;;;;;;1.80;1.50;;;0.30;99.90;;;;;;5050159;28;20470;-55
2022/01/21 13:49:29;;;;;;;2.33;1.90;;;0.30;99.90;;;;;;5063767;28;20484;-55
2022/01/21 13:51:59;;;;;;;1.83;1.50;;;0.20;99.90;;;;;;5078449;23;20539;-82
2022/01/21 13:54:37;;;;;;;2.50;1.30;;;0.20;99.90;;;;;;5058894;28;20825;-82